KMOX/MOX METAR and TAF weather

Enter ICAO airport designator
Station Type Date Time Source
KMOX METAR 2020/09/25 05:55 UTC NOAA

KMOX 250555Z AUTO 14008KT 10SM CLR 16/12 A2976 RMK AO2 LTG DSNT N


Station Type Date Time Source
KMOX Decoded METAR 2020/09/25 05:55 UTC NOAA

Morris, Morris Municipal Airport, MN, United States (KMOX) 45-34N 095-58W
Sep 25, 2020 - 01:55 AM EDT / 2020.09.25 0555 UTC
Wind: from the SE (140 degrees) at 9 MPH (8 KT):0
Visibility: 10 mile(s):0
Sky conditions: clear
Weather: Lightning observed
Temperature: 60 F (16 C)
Dew Point: 53 F (12 C)
Relative Humidity: 77%
Pressure (altimeter): 29.76 in. Hg (1007 hPa)
ob: KMOX 250555Z AUTO 14008KT 10SM CLR 16/12 A2976 RMK AO2 LTG DSNT N
cycle: 6

Station Type Date Time Source
KMOX TAF UTC NOAA

Error!

Example: see airport list